Time;durP1;ratioP1;P1;durP2;ratioP2;P2;SDS_P1;SDS_P2;PMS_P1;PMS_P2;Temp;Humidity;BMP_temperature;BMP_pressure;BME280_temperature;BME280_humidity;BME280_pressure;Samples;Min_cycle;Max_cycle;Signal;HPM_P1;HPM_P2
2022/11/10 00:01:55;;;;;;;14.70;2.03;;;8.40;99.90;;;;;;5044835;28;20032;-73
2022/11/10 00:04:20;;;;;;;9.43;2.10;;;8.40;99.90;;;;;;5057441;28;20449;-73
2022/11/10 00:06:47;;;;;;;11.17;2.03;;;8.30;99.90;;;;;;5030503;28;20058;-73
2022/11/10 00:09:13;;;;;;;10.30;1.58;;;8.30;99.90;;;;;;5029453;28;20045;-73
2022/11/10 00:11:39;;;;;;;15.35;1.65;;;8.30;99.90;;;;;;5044541;28;20435;-73
2022/11/10 00:17:05;;;;;;;11.35;1.65;;;8.40;99.90;;;;;;5040372;28;20523;-73
2022/11/10 00:19:32;;;;;;;15.57;1.90;;;8.40;99.90;;;;;;5041792;28;20417;-73
2022/11/10 00:21:57;;;;;;;9.95;1.73;;;8.40;99.90;;;;;;5047024;28;20045;-73
2022/11/10 00:24:24;;;;;;;10.23;1.80;;;8.40;99.90;;;;;;5043740;28;20462;-73
2022/11/10 00:26:50;;;;;;;10.90;2.13;;;8.50;99.90;;;;;;5043742;28;20044;-73
2022/11/10 00:29:16;;;;;;;9.30;1.50;;;8.50;99.90;;;;;;5059595;28;20060;-73
2022/11/10 00:31:42;;;;;;;8.77;1.50;;;8.60;99.90;;;;;;5063537;28;20045;-73
2022/11/10 00:34:13;;;;;;;12.73;1.77;;;8.60;99.90;;;;;;5055813;28;20449;-73
2022/11/10 00:36:40;;;;;;;11.18;1.70;;;8.60;99.90;;;;;;5041700;28;20063;-73
2022/11/10 00:39:06;;;;;;;10.20;1.60;;;8.60;99.90;;;;;;5061219;28;20618;-73
2022/11/10 00:41:31;;;;;;;11.00;1.27;;;8.60;99.90;;;;;;5044372;28;20119;-73
2022/11/10 00:43:58;;;;;;;8.60;1.27;;;8.60;99.90;;;;;;5051625;28;20044;-73
2022/11/10 00:46:23;;;;;;;8.85;1.70;;;8.60;99.90;;;;;;5040865;28;20130;-73
2022/11/10 00:48:49;;;;;;;10.27;2.30;;;8.50;99.90;;;;;;5043388;28;20570;-73
2022/11/10 00:51:24;;;;;;;11.00;1.87;;;8.50;99.90;;;;;;5027213;28;20071;-73
2022/11/10 00:53:50;;;;;;;10.50;1.42;;;8.40;99.90;;;;;;5044038;28;20040;-73
2022/11/10 00:56:17;;;;;;;11.02;1.80;;;8.40;99.90;;;;;;5048328;28;20167;-73
2022/11/10 00:58:43;;;;;;;8.43;1.55;;;8.40;99.90;;;;;;5033926;28;20124;-73
2022/11/10 01:01:09;;;;;;;13.63;2.13;;;8.30;99.90;;;;;;5029773;28;20127;-73
2022/11/10 01:03:35;;;;;;;9.70;1.80;;;8.30;99.90;;;;;;5050305;28;20045;-73
2022/11/10 01:06:09;;;;;;;10.60;2.33;;;8.30;99.90;;;;;;5027885;28;20094;-73
2022/11/10 01:08:38;;;;;;;14.88;2.10;;;8.30;99.90;;;;;;5065623;28;20036;-73
2022/11/10 01:11:10;;;;;;;12.80;2.10;;;8.20;99.90;;;;;;5062555;28;20040;-73
2022/11/10 01:13:36;;;;;;;13.40;2.00;;;8.20;99.90;;;;;;5067614;28;20043;-73
2022/11/10 01:16:06;;;;;;;14.23;2.73;;;8.20;99.90;;;;;;5046859;28;20045;-73
2022/11/10 01:18:33;;;;;;;12.30;1.80;;;8.20;99.90;;;;;;5067601;28;20048;-73
2022/11/10 01:20:59;;;;;;;12.18;2.35;;;8.20;99.90;;;;;;5047081;28;20040;-73
2022/11/10 01:23:25;;;;;;;11.33;1.83;;;8.20;99.90;;;;;;5050816;28;20055;-73
2022/11/10 01:25:50;;;;;;;12.07;2.00;;;8.20;99.90;;;;;;5045674;28;20084;-73
2022/11/10 01:28:16;;;;;;;13.53;2.20;;;8.20;99.90;;;;;;5067291;28;20315;-73
2022/11/10 01:30:42;;;;;;;13.67;2.23;;;8.30;99.90;;;;;;5046744;28;20093;-73
2022/11/10 01:33:07;;;;;;;10.77;1.83;;;8.30;99.90;;;;;;5033676;28;20548;-73
2022/11/10 01:35:34;;;;;;;13.63;1.90;;;8.20;99.90;;;;;;5020459;28;20441;-73
2022/11/10 01:38:02;;;;;;;14.77;2.10;;;8.30;99.90;;;;;;5045855;28;20051;-73
2022/11/10 01:40:28;;;;;;;13.13;2.45;;;8.30;99.90;;;;;;5065571;28;20052;-73
2022/11/10 01:42:56;;;;;;;11.43;2.37;;;8.20;99.90;;;;;;5033293;28;20460;-73
2022/11/10 01:45:21;;;;;;;15.93;2.35;;;8.30;99.90;;;;;;5044838;28;20040;-73
2022/11/10 01:47:52;;;;;;;10.87;2.10;;;8.20;99.90;;;;;;5055280;28;20507;-73
2022/11/10 01:50:20;;;;;;;9.75;1.88;;;8.20;99.90;;;;;;5048916;28;20591;-73
2022/11/10 01:52:49;;;;;;;14.90;2.22;;;8.30;99.90;;;;;;5043125;28;20485;-73
2022/11/10 01:55:16;;;;;;;14.68;2.30;;;8.30;99.90;;;;;;5065059;28;20352;-73
2022/11/10 01:57:42;;;;;;;16.33;2.28;;;8.30;99.90;;;;;;5048580;28;20048;-73
2022/11/10 02:00:09;;;;;;;13.50;2.70;;;8.30;99.90;;;;;;5042428;28;20136;-73
2022/11/10 02:02:57;;;;;;;11.23;2.20;;;8.30;99.90;;;;;;5039993;28;20032;-73
2022/11/10 02:05:23;;;;;;;11.55;2.08;;;8.40;99.90;;;;;;5054342;28;20044;-73
2022/11/10 02:07:50;;;;;;;11.10;2.20;;;8.40;99.90;;;;;;5064256;28;20162;-73
2022/11/10 02:10:18;;;;;;;18.27;3.70;;;8.50;99.90;;;;;;5048160;28;20352;-74
2022/11/10 02:12:45;;;;;;;15.43;2.63;;;8.50;99.90;;;;;;5065910;28;20045;-73
2022/11/10 02:15:14;;;;;;;15.50;2.55;;;8.50;99.90;;;;;;5049490;28;20040;-73
2022/11/10 02:17:40;;;;;;;15.15;2.67;;;8.50;99.90;;;;;;5063946;28;20066;-73
2022/11/10 02:20:14;;;;;;;19.58;2.50;;;8.50;99.90;;;;;;5064060;28;20468;-73
2022/11/10 02:22:40;;;;;;;11.35;2.00;;;8.50;99.90;;;;;;5063551;28;20054;-73
2022/11/10 02:25:07;;;;;;;18.20;2.33;;;8.50;99.90;;;;;;5029411;28;20045;-73
2022/11/10 02:27:32;;;;;;;13.82;2.38;;;8.60;99.90;;;;;;5045736;28;20090;-73
2022/11/10 02:29:59;;;;;;;20.13;2.43;;;8.60;99.90;;;;;;5046223;28;20486;-73
2022/11/10 02:32:25;;;;;;;20.05;2.92;;;8.70;99.90;;;;;;5029775;28;20051;-73
2022/11/10 02:34:50;;;;;;;12.37;2.63;;;8.70;99.90;;;;;;5063482;28;20045;-73
2022/11/10 02:37:16;;;;;;;12.20;2.13;;;8.70;99.90;;;;;;5045844;28;20509;-73
2022/11/10 02:39:42;;;;;;;15.90;2.30;;;8.80;99.90;;;;;;5032095;28;20074;-74
2022/11/10 02:42:09;;;;;;;15.63;2.40;;;8.80;99.90;;;;;;5062557;28;20033;-73
2022/11/10 02:44:39;;;;;;;17.50;2.35;;;8.90;99.90;;;;;;5046073;28;20134;-73
2022/11/10 02:47:05;;;;;;;23.58;3.13;;;8.90;99.90;;;;;;5062182;28;20119;-73
2022/11/10 02:49:31;;;;;;;20.25;2.53;;;9.00;99.90;;;;;;5029113;28;20124;-73
2022/11/10 02:51:57;;;;;;;15.97;2.87;;;9.00;99.90;;;;;;5031591;28;20524;-73
2022/11/10 02:54:23;;;;;;;15.37;2.77;;;9.00;99.90;;;;;;5042155;28;20109;-73
2022/11/10 02:56:48;;;;;;;17.23;2.73;;;9.00;99.90;;;;;;5046313;28;20123;-73
2022/11/10 02:59:14;;;;;;;10.70;2.10;;;9.00;99.90;;;;;;5062534;28;20044;-73
2022/11/10 03:01:40;;;;;;;15.90;2.50;;;9.00;99.90;;;;;;5031015;28;20071;-73
2022/11/10 03:04:06;;;;;;;16.27;2.50;;;9.00;99.90;;;;;;5031923;28;20136;-73
2022/11/10 03:06:32;;;;;;;18.40;2.70;;;9.00;99.90;;;;;;5023778;28;20033;-73
2022/11/10 03:08:58;;;;;;;16.80;2.03;;;8.90;99.90;;;;;;5046847;28;20286;-74
2022/11/10 03:11:24;;;;;;;17.60;3.22;;;8.90;99.90;;;;;;5047516;28;20422;-73
2022/11/10 03:13:50;;;;;;;13.20;2.57;;;8.90;99.90;;;;;;5048193;28;20044;-73
2022/11/10 03:16:16;;;;;;;15.27;2.47;;;9.00;99.90;;;;;;5063940;28;20340;-73
2022/11/10 03:18:42;;;;;;;16.20;2.73;;;9.00;99.90;;;;;;5063554;28;20626;-73
2022/11/10 03:21:08;;;;;;;16.97;3.70;;;9.00;99.90;;;;;;5046336;28;20636;-73
2022/11/10 03:23:34;;;;;;;18.30;3.57;;;9.00;99.90;;;;;;5064756;28;20071;-73
2022/11/10 03:26:03;;;;;;;18.10;4.80;;;9.00;99.90;;;;;;5046405;28;20694;-73
2022/11/10 03:28:29;;;;;;;21.77;4.38;;;9.00;99.90;;;;;;5048129;28;20102;-73
2022/11/10 03:30:55;;;;;;;17.07;3.67;;;9.10;99.90;;;;;;5030291;28;20052;-73
2022/11/10 03:33:21;;;;;;;22.93;4.70;;;9.10;99.90;;;;;;5061994;28;20148;-73
2022/11/10 03:35:46;;;;;;;20.53;4.17;;;9.10;99.90;;;;;;5059914;28;20064;-73
2022/11/10 03:38:12;;;;;;;18.13;4.70;;;9.10;99.90;;;;;;5028951;28;20040;-73
2022/11/10 03:40:38;;;;;;;26.43;4.70;;;9.20;99.90;;;;;;5044423;28;20078;-73
2022/11/10 03:43:03;;;;;;;23.90;4.67;;;9.20;99.90;;;;;;5063947;28;20131;-73
2022/11/10 03:45:29;;;;;;;25.23;5.03;;;9.20;99.90;;;;;;5044330;28;20423;-73
2022/11/10 03:47:55;;;;;;;20.37;4.37;;;9.20;99.90;;;;;;5063813;28;20136;-73
2022/11/10 03:50:21;;;;;;;23.83;4.30;;;9.20;99.90;;;;;;5060784;28;20045;-73
2022/11/10 03:52:47;;;;;;;19.13;4.43;;;9.30;99.90;;;;;;5047622;28;20731;-73
2022/11/10 03:55:16;;;;;;;24.83;3.97;;;9.20;99.90;;;;;;5045620;28;20041;-73
2022/11/10 03:57:42;;;;;;;15.80;3.60;;;9.20;99.90;;;;;;5047549;28;20290;-73
2022/11/10 04:00:09;;;;;;;23.40;5.37;;;9.20;99.90;;;;;;5046418;28;20287;-73
2022/11/10 04:02:35;;;;;;;19.27;3.73;;;9.20;99.90;;;;;;5062084;28;20681;-73
2022/11/10 04:10:29;;;;;;;18.42;3.53;;;9.10;99.90;;;;;;5049429;28;20689;-74
2022/11/10 04:15:41;;;;;;;21.00;3.50;;;9.20;99.90;;;;;;5043287;28;20048;-72
2022/11/10 04:18:23;;;;;;;21.90;3.63;;;9.20;99.90;;;;;;5045419;28;20279;-73
2022/11/10 04:20:54;;;;;;;24.90;3.90;;;9.20;99.90;;;;;;5044351;28;20291;-73
2022/11/10 04:23:27;;;;;;;19.90;3.27;;;9.20;99.90;;;;;;5063136;28;20123;-73
2022/11/10 04:28:40;;;;;;;14.67;2.70;;;9.20;99.90;;;;;;5055041;28;20849;-73
2022/11/10 04:31:06;;;;;;;24.67;3.00;;;9.10;99.90;;;;;;5043930;28;20330;-73
2022/11/10 04:33:32;;;;;;;22.47;3.50;;;9.10;99.90;;;;;;5046631;28;20283;-73
2022/11/10 04:35:58;;;;;;;17.20;3.23;;;9.20;99.90;;;;;;5034449;28;20283;-73
2022/11/10 04:38:24;;;;;;;22.63;3.03;;;9.20;99.90;;;;;;5060451;28;20294;-73
2022/11/10 04:40:50;;;;;;;17.07;2.57;;;9.20;99.90;;;;;;5036889;28;20094;-73
2022/11/10 04:43:16;;;;;;;19.83;2.67;;;9.20;99.90;;;;;;5029934;28;20040;-73
2022/11/10 04:45:42;;;;;;;19.43;3.47;;;9.20;99.90;;;;;;5032894;28;20307;-73
2022/11/10 04:48:08;;;;;;;16.73;3.50;;;9.20;99.90;;;;;;5022143;28;20075;-73
2022/11/10 04:50:34;;;;;;;17.10;3.33;;;9.20;99.90;;;;;;5029058;28;20068;-73
2022/11/10 04:52:59;;;;;;;20.07;3.47;;;9.30;99.90;;;;;;5056277;28;20509;-73
2022/11/10 04:55:25;;;;;;;16.53;2.90;;;9.30;99.90;;;;;;5046500;28;20052;-73
2022/11/10 04:57:51;;;;;;;16.33;2.90;;;9.40;99.90;;;;;;5043920;28;20128;-73
2022/11/10 05:00:18;;;;;;;21.70;3.60;;;9.30;99.90;;;;;;5045552;28;20287;-73
2022/11/10 05:02:43;;;;;;;15.57;3.27;;;9.30;99.90;;;;;;5028197;28;20282;-73
2022/11/10 05:05:10;;;;;;;18.77;2.90;;;9.40;99.90;;;;;;5028657;28;20299;-73
2022/11/10 05:07:36;;;;;;;23.20;3.90;;;9.30;99.90;;;;;;5059392;28;20102;-73
2022/11/10 05:10:01;;;;;;;19.97;3.13;;;9.30;99.90;;;;;;5029513;28;20271;-73
2022/11/10 05:12:27;;;;;;;20.87;3.13;;;9.30;99.90;;;;;;5043910;28;20292;-73
2022/11/10 05:14:53;;;;;;;20.80;2.73;;;9.30;99.90;;;;;;5060756;28;20591;-73
2022/11/10 05:17:18;;;;;;;18.90;3.20;;;9.30;99.90;;;;;;5041681;28;20120;-73
2022/11/10 05:19:46;;;;;;;23.10;3.50;;;9.30;99.90;;;;;;5027846;28;20086;-73
2022/11/10 05:22:12;;;;;;;22.30;3.50;;;9.30;99.90;;;;;;5043937;28;20041;-73
2022/11/10 05:24:37;;;;;;;19.57;3.40;;;9.30;99.90;;;;;;5044412;28;20300;-74
2022/11/10 05:27:03;;;;;;;25.97;4.00;;;9.30;99.90;;;;;;5046268;28;20098;-73
2022/11/10 05:29:29;;;;;;;22.17;3.83;;;9.30;99.90;;;;;;5029365;28;20397;-73
2022/11/10 05:31:54;;;;;;;27.93;3.93;;;9.30;99.90;;;;;;5044653;28;20067;-73
2022/11/10 05:34:20;;;;;;;21.27;3.60;;;9.30;99.90;;;;;;5030098;28;20123;-73
2022/11/10 05:36:46;;;;;;;18.57;3.67;;;9.30;99.90;;;;;;5027030;28;20070;-73
2022/11/10 05:39:12;;;;;;;28.80;3.73;;;9.30;99.90;;;;;;5030542;28;20044;-73
2022/11/10 05:41:37;;;;;;;21.73;3.73;;;9.30;99.90;;;;;;5046864;28;20451;-74
2022/11/10 05:44:03;;;;;;;21.60;3.57;;;9.30;99.90;;;;;;5062870;28;20052;-73
2022/11/10 05:46:30;;;;;;;24.10;3.50;;;9.30;99.90;;;;;;5047417;28;20048;-73
2022/11/10 05:48:56;;;;;;;20.27;3.10;;;9.30;99.90;;;;;;5028648;28;20079;-73
2022/11/10 05:51:22;;;;;;;20.83;3.70;;;9.30;99.90;;;;;;5042261;28;20307;-73
2022/11/10 05:53:48;;;;;;;23.70;3.60;;;9.30;99.90;;;;;;5058233;28;20052;-73
2022/11/10 05:56:13;;;;;;;24.10;3.03;;;9.30;99.90;;;;;;5048142;28;20048;-73
2022/11/10 05:58:39;;;;;;;18.20;2.90;;;9.20;99.90;;;;;;5046430;28;20044;-73
2022/11/10 06:01:05;;;;;;;18.30;3.43;;;9.30;99.90;;;;;;5047968;28;20082;-73
2022/11/10 06:03:31;;;;;;;16.93;2.50;;;9.30;99.90;;;;;;5019969;28;20492;-73
2022/11/10 06:05:56;;;;;;;23.77;3.70;;;9.30;99.90;;;;;;5056608;28;20048;-73
2022/11/10 06:08:23;;;;;;;24.60;3.93;;;9.20;99.90;;;;;;5047318;28;20392;-73
2022/11/10 06:10:49;;;;;;;25.67;3.47;;;9.30;99.90;;;;;;5049185;28;20075;-73
2022/11/10 06:13:15;;;;;;;23.83;3.00;;;9.30;99.90;;;;;;5029254;28;20287;-73
2022/11/10 06:15:41;;;;;;;21.13;3.03;;;9.20;99.90;;;;;;5041195;28;20110;-73
2022/11/10 06:18:06;;;;;;;23.30;2.73;;;9.20;99.90;;;;;;5048197;28;20442;-73
2022/11/10 06:20:32;;;;;;;18.53;3.13;;;9.20;99.90;;;;;;5034802;28;20077;-73
2022/11/10 06:23:06;;;;;;;27.27;3.93;;;9.20;99.90;;;;;;5064303;28;20119;-73
2022/11/10 06:25:34;;;;;;;21.15;2.80;;;9.20;99.90;;;;;;5046902;28;20046;-73
2022/11/10 06:28:01;;;;;;;32.17;3.47;;;9.20;99.90;;;;;;5040177;28;20425;-73
2022/11/10 06:30:28;;;;;;;24.77;3.03;;;9.20;99.90;;;;;;5044624;28;20298;-73
2022/11/10 06:32:54;;;;;;;22.33;3.07;;;9.20;99.90;;;;;;5064402;28;20285;-73
2022/11/10 06:35:21;;;;;;;17.37;2.80;;;9.20;99.90;;;;;;5062910;28;20293;-73
2022/11/10 06:38:00;;;;;;;24.77;3.23;;;9.30;99.90;;;;;;5062855;28;20286;-72
2022/11/10 06:40:26;;;;;;;17.17;3.57;;;9.30;99.90;;;;;;5060728;28;20785;-72
2022/11/10 06:42:52;;;;;;;28.50;3.37;;;9.40;99.90;;;;;;5054821;28;20801;-72
2022/11/10 06:45:18;;;;;;;17.57;3.47;;;9.40;99.90;;;;;;5042950;28;20310;-72
2022/11/10 06:47:43;;;;;;;22.63;3.53;;;9.40;99.90;;;;;;5047996;28;20033;-72
2022/11/10 06:50:09;;;;;;;28.67;4.07;;;9.50;99.90;;;;;;5031251;28;20110;-72
2022/11/10 06:52:35;;;;;;;20.93;3.70;;;9.50;99.90;;;;;;5045259;28;20493;-72
2022/11/10 06:55:01;;;;;;;22.50;3.77;;;9.50;99.90;;;;;;5043410;28;20476;-72
2022/11/10 06:57:27;;;;;;;20.63;3.53;;;9.50;99.90;;;;;;5028720;28;20106;-72
2022/11/10 06:59:53;;;;;;;18.87;3.07;;;9.50;99.90;;;;;;5043236;28;20076;-72
2022/11/10 07:02:19;;;;;;;27.50;3.60;;;9.50;99.90;;;;;;5060168;28;20120;-73
2022/11/10 07:04:44;;;;;;;23.23;4.97;;;9.50;99.90;;;;;;5061182;28;20032;-73
2022/11/10 07:07:11;;;;;;;19.40;3.10;;;9.50;99.90;;;;;;5047877;28;20303;-73
2022/11/10 07:09:37;;;;;;;21.57;4.23;;;9.50;99.90;;;;;;5046135;28;20046;-72
2022/11/10 07:12:03;;;;;;;24.67;3.13;;;9.50;99.90;;;;;;5047986;28;20295;-72
2022/11/10 07:14:29;;;;;;;24.00;3.70;;;9.50;99.90;;;;;;5018939;28;20294;-72
2022/11/10 07:16:55;;;;;;;27.50;3.67;;;9.50;99.90;;;;;;5046868;28;20646;-73
2022/11/10 07:19:21;;;;;;;22.77;3.67;;;9.50;99.90;;;;;;5047991;28;20516;-72
2022/11/10 07:21:47;;;;;;;29.93;4.03;;;9.50;99.90;;;;;;5041716;28;20086;-72
2022/11/10 07:24:12;;;;;;;18.60;2.87;;;9.50;99.90;;;;;;5038851;28;20048;-72
2022/11/10 07:26:38;;;;;;;20.87;3.77;;;9.50;99.90;;;;;;5044147;28;20041;-73
2022/11/10 07:29:04;;;;;;;24.27;3.57;;;9.50;99.90;;;;;;5058876;28;20036;-73
2022/11/10 07:31:29;;;;;;;16.37;3.47;;;9.50;99.90;;;;;;5045631;28;20136;-72
2022/11/10 07:33:55;;;;;;;20.00;3.60;;;9.50;99.90;;;;;;5030819;28;20435;-72
2022/11/10 07:36:21;;;;;;;15.97;3.40;;;9.50;99.90;;;;;;5031150;28;20572;-72
2022/11/10 07:38:46;;;;;;;20.93;3.27;;;9.60;99.90;;;;;;5042711;28;20077;-75
2022/11/10 07:41:12;;;;;;;19.00;4.10;;;9.60;99.90;;;;;;5062412;28;20040;-74
2022/11/10 07:43:38;;;;;;;22.43;3.60;;;9.60;99.90;;;;;;5042424;28;20072;-75
2022/11/10 07:46:04;;;;;;;20.47;3.50;;;9.70;99.90;;;;;;5031080;28;20045;-75
2022/11/10 07:48:29;;;;;;;22.03;3.33;;;9.70;99.90;;;;;;5025087;28;20448;-74
2022/11/10 07:50:55;;;;;;;27.60;3.80;;;9.80;99.90;;;;;;5039646;28;20044;-75
2022/11/10 07:53:21;;;;;;;22.03;3.50;;;9.90;99.90;;;;;;5026236;28;20044;-74
2022/11/10 07:55:47;;;;;;;26.13;4.53;;;9.90;99.90;;;;;;5039130;28;20544;-74
2022/11/10 07:58:16;;;;;;;22.53;3.70;;;10.00;99.90;;;;;;5034185;28;20053;-74
2022/11/10 08:00:43;;;;;;;25.60;4.00;;;10.10;99.90;;;;;;5059046;28;20286;-75
2022/11/10 08:03:11;;;;;;;28.30;3.67;;;10.20;99.90;;;;;;5043750;28;20298;-75
2022/11/10 08:05:38;;;;;;;24.90;3.90;;;10.30;99.90;;;;;;5044265;28;20835;-74
2022/11/10 08:08:05;;;;;;;23.33;4.13;;;10.30;99.90;;;;;;5023456;28;20775;-74
2022/11/10 08:10:31;;;;;;;26.43;3.83;;;10.40;99.90;;;;;;5056619;28;20817;-75
2022/11/10 08:12:59;;;;;;;24.93;3.47;;;10.50;99.90;;;;;;5059227;28;20378;-75
2022/11/10 08:15:27;;;;;;;19.17;3.83;;;10.50;99.90;;;;;;5044272;28;20287;-74
2022/11/10 08:18:05;;;;;;;24.90;3.23;;;10.50;99.90;;;;;;5056320;28;20287;-74
2022/11/10 08:20:32;;;;;;;24.47;3.40;;;10.60;99.90;;;;;;5059116;28;20287;-75
2022/11/10 08:23:00;;;;;;;22.67;3.43;;;10.60;99.90;;;;;;5063044;28;20290;-75
2022/11/10 08:25:27;;;;;;;17.60;2.87;;;10.50;99.90;;;;;;5061049;28;20376;-74
2022/11/10 08:27:58;;;;;;;20.00;3.83;;;10.50;99.90;;;;;;5061464;28;20884;-74
2022/11/10 08:30:24;;;;;;;23.57;3.23;;;10.50;99.90;;;;;;5045366;28;20291;-74
2022/11/10 08:32:53;;;;;;;18.20;3.00;;;10.50;99.90;;;;;;5061297;28;20290;-74
2022/11/10 08:35:19;;;;;;;18.90;2.63;;;10.50;99.90;;;;;;5059807;28;20040;-74
2022/11/10 08:37:44;;;;;;;18.53;3.60;;;10.50;99.90;;;;;;5061321;28;20309;-75
2022/11/10 08:40:10;;;;;;;19.03;3.60;;;10.50;99.90;;;;;;5029377;28;20044;-74
2022/11/10 08:42:36;;;;;;;19.73;4.23;;;10.50;99.90;;;;;;5056258;28;20548;-74
2022/11/10 08:45:02;;;;;;;18.93;3.17;;;10.50;99.90;;;;;;5033793;28;20386;-74
2022/11/10 08:47:28;;;;;;;21.23;3.37;;;10.60;99.90;;;;;;5029908;28;20106;-74
2022/11/10 08:49:53;;;;;;;17.60;2.90;;;10.60;99.90;;;;;;5033504;28;20041;-74
2022/11/10 08:52:19;;;;;;;22.77;3.50;;;10.70;99.90;;;;;;5061851;28;20064;-74
2022/11/10 08:54:45;;;;;;;20.60;4.67;;;10.80;99.90;;;;;;5058802;28;20713;-74
2022/11/10 08:57:10;;;;;;;19.37;4.00;;;10.90;99.90;;;;;;5044607;28;20136;-75
2022/11/10 08:59:39;;;;;;;21.10;3.77;;;11.00;99.90;;;;;;5060313;28;20063;-74
2022/11/10 09:02:07;;;;;;;17.80;3.80;;;11.10;99.90;;;;;;5047350;28;20282;-75
2022/11/10 09:04:32;;;;;;;22.57;4.17;;;11.10;99.90;;;;;;5058173;28;20154;-74
2022/11/10 09:06:58;;;;;;;23.10;4.17;;;11.20;99.90;;;;;;5027523;28;20331;-74
2022/11/10 09:09:25;;;;;;;20.13;5.43;;;11.20;99.90;;;;;;5062403;28;20059;-74
2022/11/10 09:11:51;;;;;;;22.67;5.13;;;11.20;99.90;;;;;;5046689;28;20617;-74
2022/11/10 09:14:16;;;;;;;18.27;4.23;;;11.20;99.90;;;;;;5014276;28;20391;-74
2022/11/10 09:16:42;;;;;;;19.10;4.47;;;11.20;99.90;;;;;;5032638;28;20378;-74
2022/11/10 09:19:08;;;;;;;18.73;5.33;;;11.20;99.90;;;;;;5030300;28;20060;-74
2022/11/10 09:21:33;;;;;;;23.67;5.57;;;11.10;99.90;;;;;;5050549;28;20044;-74
2022/11/10 09:23:59;;;;;;;22.23;4.60;;;11.10;99.90;;;;;;5053649;28;20078;-74
2022/11/10 09:26:25;;;;;;;17.77;4.73;;;11.10;99.90;;;;;;5043260;28;20492;-74
2022/11/10 09:28:51;;;;;;;16.63;4.50;;;11.10;99.90;;;;;;5043970;28;20036;-74
2022/11/10 09:31:17;;;;;;;20.30;4.87;;;11.20;99.90;;;;;;5043402;28;20390;-74
2022/11/10 09:33:43;;;;;;;24.93;5.23;;;11.40;99.90;;;;;;5045410;28;20305;-74
2022/11/10 09:36:09;;;;;;;18.63;4.73;;;11.50;99.90;;;;;;5040299;28;20097;-74
2022/11/10 09:38:35;;;;;;;25.93;5.37;;;11.60;99.90;;;;;;5024978;28;20049;-74
2022/11/10 09:41:04;;;;;;;20.53;4.40;;;11.70;99.90;;;;;;5056505;28;20044;-73
2022/11/10 09:43:39;;;;;;;16.60;3.80;;;11.70;99.90;;;;;;5064818;28;20117;-74
2022/11/10 09:46:22;;;;;;;18.65;3.78;;;11.70;99.90;;;;;;5045361;28;20307;-74
2022/11/10 09:48:56;;;;;;;20.53;4.43;;;11.70;99.90;;;;;;5044152;28;20033;-74
2022/11/10 09:51:33;;;;;;;18.33;4.13;;;11.70;99.90;;;;;;5065608;28;20382;-74
2022/11/10 09:54:14;;;;;;;18.53;3.93;;;11.70;99.90;;;;;;5079980;28;20275;-74
2022/11/10 09:56:40;;;;;;;13.87;3.50;;;11.70;99.90;;;;;;5048978;28;20802;-74
2022/11/10 09:59:14;;;;;;;19.53;3.50;;;11.70;99.90;;;;;;5028374;28;20356;-74
2022/11/10 10:01:59;;;;;;;19.88;3.78;;;11.70;99.90;;;;;;5082240;28;20055;-74
2022/11/10 10:04:25;;;;;;;20.70;4.32;;;11.70;99.90;;;;;;5046061;28;20132;-74
2022/11/10 10:06:53;;;;;;;17.00;4.00;;;11.70;99.90;;;;;;5041905;28;20123;-74
2022/11/10 10:09:50;;;;;;;19.87;3.63;;;11.80;99.90;;;;;;5043351;28;20135;-73
2022/11/10 10:12:37;;;;;;;18.00;3.73;;;11.90;99.90;;;;;;5057785;28;20779;-74
2022/11/10 10:15:09;;;;;;;16.00;4.33;;;11.90;99.90;;;;;;5055342;28;20291;-74
2022/11/10 10:17:54;;;;;;;18.53;4.03;;;11.90;99.90;;;;;;5061730;28;20315;-73
2022/11/10 10:20:46;;;;;;;23.00;3.73;;;12.00;99.90;;;;;;5052302;28;20558;-74
2022/11/10 10:23:24;;;;;;;20.90;4.40;;;12.00;99.90;;;;;;5043800;28;20510;-74
2022/11/10 10:25:52;;;;;;;20.50;4.20;;;12.00;99.90;;;;;;5055908;28;20299;-74
2022/11/10 10:28:32;;;;;;;16.60;4.23;;;12.10;99.90;;;;;;5061989;28;20295;-74
2022/11/10 10:31:15;;;;;;;17.73;5.33;;;12.10;99.90;;;;;;5047336;28;20302;-74
2022/11/10 10:33:42;;;;;;;18.53;4.47;;;12.10;99.90;;;;;;5065433;28;20290;-74
2022/11/10 10:36:14;;;;;;;20.70;4.73;;;12.10;99.90;;;;;;5032086;28;20323;-74
2022/11/10 10:38:42;;;;;;;20.90;5.70;;;12.20;99.90;;;;;;5052602;28;20343;-74
2022/11/10 10:41:20;;;;;;;19.60;4.40;;;12.20;99.90;;;;;;5043996;28;20661;-74
2022/11/10 10:43:48;;;;;;;22.73;5.97;;;12.20;99.90;;;;;;5061947;28;20291;-74
2022/11/10 10:46:15;;;;;;;22.43;4.93;;;12.20;99.90;;;;;;5063545;28;20887;-74
2022/11/10 10:48:41;;;;;;;16.30;5.07;;;12.20;99.90;;;;;;5063294;28;20294;-74
2022/11/10 10:51:07;;;;;;;20.37;6.07;;;12.20;99.90;;;;;;5048479;28;20653;-74
2022/11/10 10:53:46;;;;;;;20.93;4.87;;;12.10;99.90;;;;;;5065452;28;20374;-74
2022/11/10 10:56:26;;;;;;;21.30;5.10;;;12.20;99.90;;;;;;5037752;28;20286;-74
2022/11/10 10:58:59;;;;;;;20.50;4.60;;;12.20;99.90;;;;;;5032571;28;20283;-74
2022/11/10 11:01:30;;;;;;;22.93;4.30;;;12.10;99.90;;;;;;5055338;28;20289;-74
2022/11/10 11:03:56;;;;;;;20.40;4.80;;;12.10;99.90;;;;;;5062109;28;20279;-74
2022/11/10 11:06:26;;;;;;;21.27;4.47;;;12.10;99.90;;;;;;5033438;28;20311;-75
2022/11/10 11:08:56;;;;;;;17.93;4.07;;;12.00;99.90;;;;;;5059709;28;20279;-74
2022/11/10 11:11:29;;;;;;;16.07;3.80;;;12.10;99.90;;;;;;5049813;28;20291;-75
2022/11/10 11:14:15;;;;;;;19.27;4.43;;;12.10;99.90;;;;;;5062101;28;20309;-74
2022/11/10 11:16:55;;;;;;;21.37;4.77;;;12.10;99.90;;;;;;5063216;28;20279;-74
2022/11/10 11:19:34;;;;;;;18.80;4.33;;;12.10;99.90;;;;;;5052927;28;20279;-74
2022/11/10 11:22:18;;;;;;;22.00;4.43;;;12.10;99.90;;;;;;5051870;28;20334;-75
2022/11/10 11:25:12;;;;;;;20.10;4.27;;;12.10;99.90;;;;;;5052991;28;20374;-74
2022/11/10 11:27:48;;;;;;;22.30;4.40;;;12.10;99.90;;;;;;5062910;28;20294;-77
2022/11/10 11:30:27;;;;;;;17.10;4.13;;;12.00;99.90;;;;;;5056844;28;20314;-75
2022/11/10 11:33:02;;;;;;;18.03;3.87;;;12.00;99.90;;;;;;5027275;28;20306;-73
2022/11/10 11:35:36;;;;;;;21.35;4.55;;;12.00;99.90;;;;;;5041527;28;20271;-74
2022/11/10 11:38:41;;;;;;;22.08;3.85;;;12.00;99.90;;;;;;5048376;28;20366;-74
2022/11/10 11:41:12;;;;;;;20.67;3.53;;;12.00;99.90;;;;;;5053074;28;20113;-75
2022/11/10 11:43:45;;;;;;;21.77;3.63;;;11.90;99.90;;;;;;5053805;28;20275;-73
2022/11/10 11:46:26;;;;;;;13.43;3.10;;;11.90;99.90;;;;;;5064502;28;20299;-74
2022/11/10 11:49:22;;;;;;;22.80;3.33;;;11.90;99.90;;;;;;5057140;28;20378;-74
2022/11/10 11:51:57;;;;;;;18.50;3.38;;;11.90;99.90;;;;;;5068057;28;20279;-74
2022/11/10 11:54:46;;;;;;;17.97;2.97;;;11.90;99.90;;;;;;5062534;28;20538;-74
2022/11/10 11:57:23;;;;;;;20.43;3.60;;;12.00;99.90;;;;;;5056176;28;20280;-74
2022/11/10 12:00:09;;;;;;;21.20;3.50;;;12.00;99.90;;;;;;5051153;28;20283;-74
2022/11/10 12:02:35;;;;;;;16.83;3.60;;;12.00;99.90;;;;;;5060437;28;20774;-75
2022/11/10 12:05:30;;;;;;;16.47;3.07;;;12.00;99.90;;;;;;5049790;28;20291;-75
2022/11/10 12:08:14;;;;;;;16.45;2.78;;;12.10;99.90;;;;;;5038451;28;20083;-73
2022/11/10 12:10:59;;;;;;;15.63;3.00;;;12.10;99.90;;;;;;5056588;28;20083;-74
2022/11/10 12:13:36;;;;;;;19.73;3.80;;;12.30;99.90;;;;;;5057495;28;20291;-74
2022/11/10 12:16:32;;;;;;;17.43;3.07;;;12.30;99.90;;;;;;5064220;28;20803;-73
2022/11/10 12:19:35;;;;;;;29.08;3.47;;;12.30;99.90;;;;;;5063415;28;20336;-74
2022/11/10 12:22:21;;;;;;;18.73;3.17;;;12.40;99.90;;;;;;5064178;28;20051;-74
2022/11/10 12:25:06;;;;;;;21.53;3.33;;;12.40;99.90;;;;;;5041465;28;20294;-73
2022/11/10 12:27:39;;;;;;;17.77;3.23;;;12.40;99.90;;;;;;5040149;28;20287;-73
2022/11/10 12:30:09;;;;;;;18.47;3.23;;;12.30;99.90;;;;;;5046964;28;20289;-73
2022/11/10 12:32:59;;;;;;;20.43;3.57;;;12.40;99.90;;;;;;5052517;28;20287;-74
2022/11/10 12:35:28;;;;;;;16.80;2.73;;;12.30;99.90;;;;;;5043740;28;20319;-74
2022/11/10 12:38:12;;;;;;;14.27;2.83;;;12.30;99.90;;;;;;5046630;28;20432;-73
2022/11/10 12:41:00;;;;;;;20.63;2.53;;;12.30;99.90;;;;;;5063313;28;20287;-74
2022/11/10 12:43:58;;;;;;;14.80;2.33;;;12.30;99.90;;;;;;5045407;28;20797;-74
2022/11/10 12:46:23;;;;;;;15.73;3.47;;;12.30;99.90;;;;;;5057148;28;20383;-74
2022/11/10 12:49:07;;;;;;;19.17;3.27;;;12.30;99.90;;;;;;5040796;28;20275;-73
2022/11/10 12:52:01;;;;;;;15.60;2.90;;;12.30;99.90;;;;;;5059659;28;20396;-74
2022/11/10 12:54:27;;;;;;;24.40;3.33;;;12.30;99.90;;;;;;5052808;28;20282;-74
2022/11/10 12:57:03;;;;;;;21.03;2.67;;;12.30;99.90;;;;;;5063739;28;20393;-74
2022/11/10 12:59:37;;;;;;;17.07;3.00;;;12.40;99.90;;;;;;5045259;28;20381;-74
2022/11/10 13:02:20;;;;;;;17.50;3.70;;;12.40;99.90;;;;;;5053983;28;20302;-74
2022/11/10 13:05:12;;;;;;;14.30;2.43;;;12.40;99.90;;;;;;5055082;28;20044;-75
2022/11/10 13:07:47;;;;;;;12.13;2.53;;;12.30;99.90;;;;;;5059047;28;20279;-75
2022/11/10 13:10:23;;;;;;;16.30;3.13;;;12.30;99.90;;;;;;5042359;28;20658;-74